Time;durP1;ratioP1;P1;durP2;ratioP2;P2;SDS_P1;SDS_P2;PMS_P1;PMS_P2;Temp;Humidity;BMP_temperature;BMP_pressure;BME280_temperature;BME280_humidity;BME280_pressure;Samples;Min_cycle;Max_cycle;Signal;HPM_P1;HPM_P2
2023/01/06 00:01:27;;;;;;;7.75;2.95;;;;;;;;;;5066892;28;20043;-77
2023/01/06 00:03:54;;;;;;;7.28;2.80;;;;;;;;;;5064684;28;20419;-76
2023/01/06 00:06:26;;;;;;;5.47;2.50;;;;;;;;;;5065398;28;20036;-76
2023/01/06 00:08:53;;;;;;;4.68;2.30;;;;;;;;;;5066530;28;20024;-77
2023/01/06 00:11:19;;;;;;;4.88;2.50;;;;;;;;;;5058707;28;20501;-77
2023/01/06 00:13:44;;;;;;;4.95;2.30;;;;;;;;;;5064701;28;20098;-77
2023/01/06 00:16:12;;;;;;;9.07;2.38;;;;;;;;;;5068645;28;20030;-77
2023/01/06 00:18:38;;;;;;;5.45;2.05;;;;;;;;;;5061595;28;20427;-76
2023/01/06 00:21:04;;;;;;;5.45;2.28;;;;;;;;;;5057483;28;20033;-77
2023/01/06 00:23:30;;;;;;;5.03;2.28;;;;;;;;;;5057257;28;20373;-77
2023/01/06 00:25:55;;;;;;;6.65;2.55;;;;;;;;;;5052174;28;20040;-77
2023/01/06 00:28:21;;;;;;;4.55;2.15;;;;;;;;;;5057849;28;20032;-77
2023/01/06 00:30:46;;;;;;;4.90;2.30;;;;;;;;;;5058869;28;20040;-77
2023/01/06 00:33:12;;;;;;;5.22;2.38;;;;;;;;;;5061727;28;20507;-77
2023/01/06 00:35:37;;;;;;;6.72;2.50;;;;;;;;;;5063741;28;20031;-78
2023/01/06 00:38:03;;;;;;;5.53;2.47;;;;;;;;;;5066453;28;20477;-77
2023/01/06 00:40:29;;;;;;;4.18;2.15;;;;;;;;;;5070666;28;20572;-77
2023/01/06 00:42:54;;;;;;;9.10;2.20;;;;;;;;;;5067613;28;20111;-77
2023/01/06 00:45:19;;;;;;;4.57;2.30;;;;;;;;;;5072047;28;20058;-77
2023/01/06 00:47:45;;;;;;;8.77;2.55;;;;;;;;;;5071209;28;20099;-77
2023/01/06 00:50:10;;;;;;;4.57;2.40;;;;;;;;;;5072046;28;20032;-77
2023/01/06 00:52:36;;;;;;;5.32;2.50;;;;;;;;;;5070331;28;20449;-77
2023/01/06 00:55:01;;;;;;;6.82;2.42;;;;;;;;;;5071334;28;20024;-77
2023/01/06 00:57:26;;;;;;;5.28;2.58;;;;;;;;;;5070060;28;20024;-77
2023/01/06 00:59:52;;;;;;;3.65;2.38;;;;;;;;;;5072378;28;20024;-76
2023/01/06 01:02:17;;;;;;;7.32;2.80;;;;;;;;;;5060291;28;20028;-77
2023/01/06 01:04:43;;;;;;;4.75;2.40;;;;;;;;;;5064675;28;20031;-77
2023/01/06 01:07:09;;;;;;;5.25;2.75;;;;;;;;;;5054964;28;20107;-77
2023/01/06 01:09:34;;;;;;;5.30;2.30;;;;;;;;;;5058062;28;20068;-76
2023/01/06 01:12:08;;;;;;;5.57;2.63;;;;;;;;;;5065285;28;20052;-77
2023/01/06 01:14:48;;;;;;;4.75;2.35;;;;;;;;;;5067953;28;20021;-77
2023/01/06 01:17:22;;;;;;;4.53;2.15;;;;;;;;;;5061996;28;20649;-77
2023/01/06 01:19:49;;;;;;;4.38;2.20;;;;;;;;;;5063424;28;20147;-77
2023/01/06 01:22:16;;;;;;;5.85;2.17;;;;;;;;;;5064701;28;20082;-77
2023/01/06 01:24:41;;;;;;;3.80;1.98;;;;;;;;;;5059399;28;20743;-77
2023/01/06 01:27:07;;;;;;;4.57;1.70;;;;;;;;;;5064139;28;20055;-77
2023/01/06 01:29:33;;;;;;;5.10;2.00;;;;;;;;;;5061644;28;20107;-77
2023/01/06 01:31:59;;;;;;;3.35;1.63;;;;;;;;;;5056861;28;20131;-76
2023/01/06 01:34:24;;;;;;;3.50;1.50;;;;;;;;;;5060890;28;20024;-77
2023/01/06 01:36:51;;;;;;;4.38;1.70;;;;;;;;;;5062496;28;20115;-76
2023/01/06 01:39:28;;;;;;;2.90;1.65;;;;;;;;;;5061758;28;20032;-76
2023/01/06 01:41:55;;;;;;;3.70;1.67;;;;;;;;;;5052254;28;20024;-77
2023/01/06 01:44:48;;;;;;;3.78;1.77;;;;;;;;;;5061575;28;20058;-76
2023/01/06 01:47:18;;;;;;;2.90;1.38;;;;;;;;;;5059697;28;20489;-77
2023/01/06 01:49:46;;;;;;;4.60;1.60;;;;;;;;;;5064635;28;20055;-76
2023/01/06 01:52:13;;;;;;;4.05;1.52;;;;;;;;;;5055371;28;20107;-77
2023/01/06 01:54:40;;;;;;;4.32;1.42;;;;;;;;;;5065877;28;20021;-77
2023/01/06 01:57:10;;;;;;;3.70;1.40;;;;;;;;;;5057406;28;20032;-77
2023/01/06 01:59:37;;;;;;;9.38;2.88;;;;;;;;;;5073165;28;20029;-76
2023/01/06 02:02:03;;;;;;;4.57;1.45;;;;;;;;;;5059806;28;20488;-77
2023/01/06 02:04:31;;;;;;;3.42;1.10;;;;;;;;;;5056832;28;20067;-77
2023/01/06 02:06:56;;;;;;;3.55;1.38;;;;;;;;;;5058621;28;20029;-77
2023/01/06 02:09:31;;;;;;;2.97;1.27;;;;;;;;;;5057185;28;20381;-76
2023/01/06 02:11:57;;;;;;;4.80;1.27;;;;;;;;;;5059001;28;20028;-77
2023/01/06 02:14:25;;;;;;;4.95;1.60;;;;;;;;;;5062327;28;20035;-77
2023/01/06 02:16:53;;;;;;;4.13;1.73;;;;;;;;;;5067006;28;20058;-77
2023/01/06 02:19:56;;;;;;;4.00;1.33;;;;;;;;;;5059590;28;20107;-76
2023/01/06 02:22:53;;;;;;;2.58;1.27;;;;;;;;;;5058738;28;20528;-77
2023/01/06 02:25:31;;;;;;;2.30;1.17;;;;;;;;;;5063537;28;20021;-77
2023/01/06 02:28:12;;;;;;;3.33;1.33;;;;;;;;;;5065595;28;20033;-77
2023/01/06 02:31:03;;;;;;;3.05;1.20;;;;;;;;;;5062738;28;20032;-77
2023/01/06 02:33:40;;;;;;;2.22;1.10;;;;;;;;;;5067257;28;20041;-77
2023/01/06 02:36:14;;;;;;;3.70;1.20;;;;;;;;;;5069383;28;20025;-77
2023/01/06 02:39:14;;;;;;;6.55;1.77;;;;;;;;;;5070724;28;20099;-76
2023/01/06 02:42:22;;;;;;;3.25;1.38;;;;;;;;;;5061993;28;20416;-77
2023/01/06 02:44:59;;;;;;;4.00;1.40;;;;;;;;;;5069905;28;20043;-77
2023/01/06 02:47:36;;;;;;;3.85;1.30;;;;;;;;;;5063692;28;20031;-77
2023/01/06 02:50:20;;;;;;;1.67;1.00;;;;;;;;;;5066263;28;20073;-77
2023/01/06 02:52:51;;;;;;;4.13;1.15;;;;;;;;;;5069052;28;20112;-77
2023/01/06 02:55:27;;;;;;;4.20;1.10;;;;;;;;;;5060094;28;20110;-77
2023/01/06 02:57:58;;;;;;;3.40;1.27;;;;;;;;;;5060470;28;20059;-77
2023/01/06 03:00:32;;;;;;;3.78;1.20;;;;;;;;;;5058142;28;20146;-77
2023/01/06 03:03:11;;;;;;;2.35;1.02;;;;;;;;;;5067445;28;20036;-77
2023/01/06 03:05:39;;;;;;;3.38;1.63;;;;;;;;;;5075633;28;20100;-77
2023/01/06 03:08:08;;;;;;;4.43;1.20;;;;;;;;;;5082137;28;20024;-77
2023/01/06 03:10:35;;;;;;;3.67;1.42;;;;;;;;;;5068874;28;20103;-77
2023/01/06 03:13:14;;;;;;;1.58;0.90;;;;;;;;;;5062234;28;20048;-77
2023/01/06 03:15:40;;;;;;;3.00;0.80;;;;;;;;;;5062278;28;20028;-77
2023/01/06 03:18:05;;;;;;;3.25;1.13;;;;;;;;;;5062516;28;20391;-77
2023/01/06 03:20:31;;;;;;;4.65;1.15;;;;;;;;;;5067345;28;20016;-77
2023/01/06 03:22:56;;;;;;;4.82;1.00;;;;;;;;;;5066464;28;20193;-77
2023/01/06 03:25:22;;;;;;;2.13;0.98;;;;;;;;;;5061274;28;20025;-77
2023/01/06 03:27:47;;;;;;;3.42;1.02;;;;;;;;;;5063531;28;20036;-77
2023/01/06 03:30:14;;;;;;;1.50;0.75;;;;;;;;;;5062675;28;20028;-77
2023/01/06 03:32:46;;;;;;;3.17;0.90;;;;;;;;;;5064029;28;20095;-77
2023/01/06 03:35:17;;;;;;;5.45;1.20;;;;;;;;;;5066429;28;20052;-77
2023/01/06 03:37:53;;;;;;;2.72;0.98;;;;;;;;;;5067396;28;20038;-77
2023/01/06 03:40:30;;;;;;;4.30;1.05;;;;;;;;;;5083560;28;20025;-77
2023/01/06 03:43:19;;;;;;;4.28;1.00;;;;;;;;;;5065734;28;20032;-77
2023/01/06 03:46:14;;;;;;;1.55;0.80;;;;;;;;;;5057188;28;20119;-77
2023/01/06 03:48:57;;;;;;;2.80;0.93;;;;;;;;;;5058037;28;20021;-77
2023/01/06 03:51:53;;;;;;;5.28;1.00;;;;;;;;;;5064333;28;20029;-77
2023/01/06 03:54:41;;;;;;;2.08;0.90;;;;;;;;;;5061800;28;20455;-77
2023/01/06 03:57:10;;;;;;;2.25;1.15;;;;;;;;;;5068662;28;20086;-77
2023/01/06 03:59:40;;;;;;;2.30;0.85;;;;;;;;;;5059586;28;20412;-77
2023/01/06 04:02:06;;;;;;;4.13;1.00;;;;;;;;;;5067350;28;20030;-77
2023/01/06 04:04:31;;;;;;;6.18;1.25;;;;;;;;;;5066742;28;20028;-77
2023/01/06 04:06:57;;;;;;;4.63;0.90;;;;;;;;;;5063815;28;20055;-77
2023/01/06 04:09:22;;;;;;;4.30;1.40;;;;;;;;;;5062878;28;20138;-76
2023/01/06 04:14:31;;;;;;;4.15;1.58;;;;;;;;;;5060387;28;20022;-77
2023/01/06 04:16:57;;;;;;;3.28;1.10;;;;;;;;;;5060527;28;20021;-77
2023/01/06 04:19:22;;;;;;;2.17;1.00;;;;;;;;;;5064197;28;20043;-77
2023/01/06 04:21:47;;;;;;;2.00;0.90;;;;;;;;;;5062244;28;20416;-77
2023/01/06 04:24:13;;;;;;;2.70;1.13;;;;;;;;;;5059175;28;20392;-77
2023/01/06 04:26:38;;;;;;;1.90;0.85;;;;;;;;;;5058727;28;20121;-76
2023/01/06 04:29:04;;;;;;;3.85;1.08;;;;;;;;;;5061754;28;20080;-77
2023/01/06 04:31:29;;;;;;;2.85;1.00;;;;;;;;;;5061597;28;20047;-77
2023/01/06 04:33:54;;;;;;;3.67;1.17;;;;;;;;;;5063088;28;20048;-77
2023/01/06 04:36:20;;;;;;;3.40;0.93;;;;;;;;;;5061634;28;20040;-77
2023/01/06 04:38:46;;;;;;;4.40;0.95;;;;;;;;;;5057153;28;20036;-77
2023/01/06 04:41:11;;;;;;;3.03;1.13;;;;;;;;;;5059048;28;20036;-77
2023/01/06 04:43:37;;;;;;;2.28;0.90;;;;;;;;;;5059970;28;20032;-77
2023/01/06 04:46:02;;;;;;;2.80;1.33;;;;;;;;;;5060103;28;20115;-76
2023/01/06 04:48:28;;;;;;;2.97;0.93;;;;;;;;;;5062456;28;20024;-77
2023/01/06 04:51:03;;;;;;;2.13;0.80;;;;;;;;;;5055317;28;20036;-77
2023/01/06 04:53:32;;;;;;;2.47;0.82;;;;;;;;;;5054388;28;20383;-77
2023/01/06 04:56:01;;;;;;;3.95;0.98;;;;;;;;;;5056024;28;20118;-77
2023/01/06 04:58:27;;;;;;;2.05;0.90;;;;;;;;;;5059842;28;20029;-77
2023/01/06 05:00:59;;;;;;;1.80;1.00;;;;;;;;;;5054579;28;20040;-77
2023/01/06 05:03:24;;;;;;;2.65;0.90;;;;;;;;;;5056280;28;20562;-77
2023/01/06 05:05:49;;;;;;;2.90;0.70;;;;;;;;;;5055011;28;20042;-77
2023/01/06 05:08:15;;;;;;;3.00;1.02;;;;;;;;;;5059394;28;20032;-77
2023/01/06 05:10:40;;;;;;;1.90;0.90;;;;;;;;;;5062499;28;20021;-77
2023/01/06 05:13:05;;;;;;;2.05;1.23;;;;;;;;;;5061622;28;20463;-77
2023/01/06 05:15:30;;;;;;;2.40;0.77;;;;;;;;;;5064835;28;20028;-77
2023/01/06 05:17:56;;;;;;;3.15;0.70;;;;;;;;;;5058665;28;20029;-76
2023/01/06 05:20:21;;;;;;;1.60;0.80;;;;;;;;;;5066391;28;20028;-77
2023/01/06 05:22:46;;;;;;;3.38;1.17;;;;;;;;;;5061585;28;20029;-77
2023/01/06 05:25:12;;;;;;;1.08;0.70;;;;;;;;;;5054465;28;20028;-76
2023/01/06 05:27:37;;;;;;;1.85;0.70;;;;;;;;;;5063725;28;20107;-77
2023/01/06 05:30:03;;;;;;;1.73;0.80;;;;;;;;;;5069664;28;20025;-77
2023/01/06 05:32:28;;;;;;;1.10;0.70;;;;;;;;;;5055568;28;20045;-77
2023/01/06 05:34:54;;;;;;;2.15;0.80;;;;;;;;;;5063676;28;20027;-76
2023/01/06 05:37:19;;;;;;;1.92;0.68;;;;;;;;;;5056869;28;20107;-77
2023/01/06 05:39:44;;;;;;;1.83;0.80;;;;;;;;;;5059364;28;20060;-77
2023/01/06 05:42:10;;;;;;;1.73;0.70;;;;;;;;;;5055029;28;20473;-77
2023/01/06 05:44:35;;;;;;;1.90;0.80;;;;;;;;;;5059846;28;20036;-77
2023/01/06 05:47:00;;;;;;;2.60;0.85;;;;;;;;;;5060753;28;20021;-77
2023/01/06 05:49:26;;;;;;;4.00;1.00;;;;;;;;;;5064249;28;20294;-76
2023/01/06 05:51:51;;;;;;;3.88;0.88;;;;;;;;;;5067307;28;20028;-77
2023/01/06 05:54:16;;;;;;;1.80;0.80;;;;;;;;;;5069780;28;20444;-77
2023/01/06 05:56:42;;;;;;;1.75;0.95;;;;;;;;;;5067163;28;20029;-77
2023/01/06 05:59:07;;;;;;;1.48;0.80;;;;;;;;;;5073631;28;20028;-77
2023/01/06 06:01:33;;;;;;;2.33;0.80;;;;;;;;;;5068226;28;20051;-77
2023/01/06 06:03:59;;;;;;;1.85;1.10;;;;;;;;;;5069575;28;20033;-77
2023/01/06 06:06:26;;;;;;;1.70;0.82;;;;;;;;;;5068530;28;20111;-77
2023/01/06 06:08:52;;;;;;;1.60;0.90;;;;;;;;;;5069443;28;20032;-76
2023/01/06 06:11:18;;;;;;;2.30;1.00;;;;;;;;;;5066110;28;20032;-76
2023/01/06 06:13:45;;;;;;;1.52;0.90;;;;;;;;;;5064103;28;20431;-77
2023/01/06 06:16:12;;;;;;;1.90;1.15;;;;;;;;;;5065802;28;20056;-76
2023/01/06 06:18:43;;;;;;;1.60;1.00;;;;;;;;;;5067520;28;20032;-77
2023/01/06 06:21:14;;;;;;;1.77;1.02;;;;;;;;;;5068631;28;20028;-76
2023/01/06 06:23:40;;;;;;;1.88;1.10;;;;;;;;;;5067562;28;20120;-77
2023/01/06 06:26:05;;;;;;;4.05;1.20;;;;;;;;;;5065373;28;20040;-76
2023/01/06 06:28:32;;;;;;;2.22;1.10;;;;;;;;;;5071696;28;20028;-77
2023/01/06 06:31:09;;;;;;;2.35;1.08;;;;;;;;;;5065228;28;20099;-77
2023/01/06 06:33:35;;;;;;;2.65;1.08;;;;;;;;;;5065114;28;20060;-76
2023/01/06 06:36:01;;;;;;;2.67;1.17;;;;;;;;;;5069532;28;20091;-77
2023/01/06 06:38:27;;;;;;;1.27;0.80;;;;;;;;;;5065459;28;20309;-77
2023/01/06 06:40:53;;;;;;;1.65;1.00;;;;;;;;;;5068753;28;20862;-76
2023/01/06 06:43:19;;;;;;;2.45;0.90;;;;;;;;;;5067356;28;20087;-77
2023/01/06 06:45:45;;;;;;;1.67;1.00;;;;;;;;;;5067888;28;20058;-77
2023/01/06 06:48:10;;;;;;;1.85;1.08;;;;;;;;;;5065165;28;20028;-77
2023/01/06 06:50:35;;;;;;;1.40;0.90;;;;;;;;;;5064197;28;20201;-77
2023/01/06 06:53:01;;;;;;;2.40;1.20;;;;;;;;;;5060522;28;20031;-77
2023/01/06 06:55:27;;;;;;;2.25;1.30;;;;;;;;;;5063927;28;20024;-76
2023/01/06 06:57:52;;;;;;;1.67;1.05;;;;;;;;;;5067499;28;20534;-77
2023/01/06 07:00:18;;;;;;;2.42;1.25;;;;;;;;;;5064001;28;20024;-77
2023/01/06 07:02:47;;;;;;;2.80;1.25;;;;;;;;;;5060796;28;20060;-77
2023/01/06 07:05:13;;;;;;;3.13;1.45;;;;;;;;;;5060608;28;20039;-77
2023/01/06 07:07:38;;;;;;;4.47;1.40;;;;;;;;;;5063688;28;20032;-77
2023/01/06 07:10:04;;;;;;;5.60;1.50;;;;;;;;;;5063931;28;20544;-77
2023/01/06 07:12:29;;;;;;;2.10;1.30;;;;;;;;;;5066912;28;20025;-77
2023/01/06 07:14:54;;;;;;;2.70;1.50;;;;;;;;;;5068282;28;20431;-77
2023/01/06 07:17:26;;;;;;;3.00;1.55;;;;;;;;;;5065032;28;20029;-77
2023/01/06 07:19:51;;;;;;;4.13;1.60;;;;;;;;;;5064222;28;20483;-77
2023/01/06 07:22:17;;;;;;;2.63;1.55;;;;;;;;;;5061812;28;20111;-76
2023/01/06 07:24:42;;;;;;;2.75;1.65;;;;;;;;;;5057205;28;20032;-77
2023/01/06 07:27:08;;;;;;;3.22;1.70;;;;;;;;;;5061294;28;20099;-77
2023/01/06 07:29:33;;;;;;;2.20;1.50;;;;;;;;;;5063796;28;20020;-76
2023/01/06 07:31:59;;;;;;;3.00;1.70;;;;;;;;;;5061368;28;20049;-76
2023/01/06 07:34:25;;;;;;;2.47;1.65;;;;;;;;;;5063582;28;20036;-77
2023/01/06 07:36:50;;;;;;;2.72;1.70;;;;;;;;;;5058559;28;20029;-77
2023/01/06 07:39:15;;;;;;;2.85;1.85;;;;;;;;;;5065927;28;20028;-77
2023/01/06 07:41:40;;;;;;;3.17;2.22;;;;;;;;;;5060690;28;20032;-77
2023/01/06 07:44:06;;;;;;;3.65;2.20;;;;;;;;;;5058869;28;20025;-77
2023/01/06 07:46:31;;;;;;;3.40;2.40;;;;;;;;;;5062307;28;20040;-77
2023/01/06 07:48:57;;;;;;;4.13;2.35;;;;;;;;;;5058379;28;20033;-76
2023/01/06 07:51:22;;;;;;;3.47;2.35;;;;;;;;;;5055748;28;20068;-77
2023/01/06 07:53:47;;;;;;;3.58;2.53;;;;;;;;;;5054184;28;20032;-76
2023/01/06 07:56:13;;;;;;;4.53;2.88;;;;;;;;;;5057314;28;20033;-77
2023/01/06 07:58:38;;;;;;;3.65;2.45;;;;;;;;;;5059403;28;20024;-76
2023/01/06 08:01:08;;;;;;;5.03;2.88;;;;;;;;;;5058140;28;20040;-76
2023/01/06 08:03:33;;;;;;;4.20;3.00;;;;;;;;;;5057618;28;20025;-77
2023/01/06 08:05:59;;;;;;;5.28;2.88;;;;;;;;;;5058268;28;20056;-77
2023/01/06 08:08:24;;;;;;;4.18;2.78;;;;;;;;;;5055916;28;20024;-76
2023/01/06 08:10:50;;;;;;;3.88;2.80;;;;;;;;;;5059626;28;20050;-77
2023/01/06 08:13:15;;;;;;;4.38;3.20;;;;;;;;;;5061884;28;20419;-76
2023/01/06 08:15:41;;;;;;;4.35;2.97;;;;;;;;;;5063730;28;20034;-76
2023/01/06 08:18:06;;;;;;;4.40;3.13;;;;;;;;;;5061899;28;20036;-76
2023/01/06 08:20:32;;;;;;;4.82;3.15;;;;;;;;;;5059163;28;20032;-76
2023/01/06 08:22:58;;;;;;;4.68;3.42;;;;;;;;;;5054636;28;20060;-77
2023/01/06 08:25:24;;;;;;;6.28;3.75;;;;;;;;;;5055813;28;20021;-76
2023/01/06 08:27:49;;;;;;;5.65;3.63;;;;;;;;;;5057526;28;20500;-76
2023/01/06 08:30:20;;;;;;;5.47;4.15;;;;;;;;;;5054964;28;20056;-76
2023/01/06 08:32:48;;;;;;;5.47;3.70;;;;;;;;;;5062828;28;20083;-76
2023/01/06 08:35:14;;;;;;;6.00;4.00;;;;;;;;;;5058053;28;20032;-76
2023/01/06 08:37:39;;;;;;;6.00;4.28;;;;;;;;;;5059247;28;20518;-77
2023/01/06 08:40:05;;;;;;;5.20;4.13;;;;;;;;;;5056831;28;20024;-76
2023/01/06 08:42:30;;;;;;;5.82;3.92;;;;;;;;;;5059841;28;20028;-77
2023/01/06 08:44:56;;;;;;;5.30;4.30;;;;;;;;;;5059090;28;20036;-77
2023/01/06 08:47:21;;;;;;;5.68;4.07;;;;;;;;;;5066786;28;20032;-77
2023/01/06 08:49:47;;;;;;;5.93;4.50;;;;;;;;;;5062290;28;20037;-77
2023/01/06 08:52:12;;;;;;;6.18;3.60;;;;;;;;;;5065006;28;20469;-77
2023/01/06 08:54:38;;;;;;;4.80;3.47;;;;;;;;;;5075337;28;20081;-77
2023/01/06 08:57:03;;;;;;;4.53;3.33;;;;;;;;;;5057753;28;20020;-77
2023/01/06 08:59:28;;;;;;;4.22;3.50;;;;;;;;;;5068524;28;20463;-77
2023/01/06 09:01:54;;;;;;;5.25;3.45;;;;;;;;;;5060555;28;20108;-77
2023/01/06 09:04:19;;;;;;;3.55;2.55;;;;;;;;;;5064219;28;20396;-77
2023/01/06 09:06:46;;;;;;;5.20;2.75;;;;;;;;;;5065792;28;20028;-77
2023/01/06 09:09:12;;;;;;;4.43;2.88;;;;;;;;;;5061817;28;20032;-77
2023/01/06 09:11:40;;;;;;;4.15;2.53;;;;;;;;;;5063943;28;20067;-77
2023/01/06 09:14:07;;;;;;;4.97;2.17;;;;;;;;;;5059311;28;20070;-77
2023/01/06 09:16:32;;;;;;;6.53;2.50;;;;;;;;;;5066685;28;20029;-77
2023/01/06 09:18:58;;;;;;;6.82;2.08;;;;;;;;;;5063307;28;20039;-77
2023/01/06 09:21:24;;;;;;;3.67;1.63;;;;;;;;;;5055618;28;20029;-77
2023/01/06 09:23:50;;;;;;;3.28;1.60;;;;;;;;;;5060545;28;20111;-77
2023/01/06 09:26:17;;;;;;;5.43;1.63;;;;;;;;;;5064518;28;20541;-77
2023/01/06 09:28:42;;;;;;;4.35;1.50;;;;;;;;;;5071302;28;20131;-77
2023/01/06 09:31:08;;;;;;;4.03;1.20;;;;;;;;;;5059273;28;20100;-77
2023/01/06 09:33:34;;;;;;;4.72;1.40;;;;;;;;;;5067582;28;20045;-77
2023/01/06 09:35:59;;;;;;;2.53;1.35;;;;;;;;;;5060571;28;20028;-77
2023/01/06 09:38:26;;;;;;;2.45;1.20;;;;;;;;;;5063170;28;20028;-77
2023/01/06 09:41:46;;;;;;;4.43;1.42;;;;;;;;;;5059763;28;20032;-77
2023/01/06 09:44:23;;;;;;;5.80;1.25;;;;;;;;;;5057988;28;20037;-77
2023/01/06 09:46:50;;;;;;;3.53;1.42;;;;;;;;;;5065797;28;20124;-77
2023/01/06 09:49:34;;;;;;;5.30;1.88;;;;;;;;;;5065632;28;20649;-77
2023/01/06 09:52:11;;;;;;;2.85;1.40;;;;;;;;;;5056708;28;20025;-77
2023/01/06 09:54:51;;;;;;;4.15;1.50;;;;;;;;;;5061619;28;20040;-77
2023/01/06 09:57:21;;;;;;;7.97;1.60;;;;;;;;;;5062921;28;20456;-77
2023/01/06 09:59:55;;;;;;;4.50;1.50;;;;;;;;;;5058404;28;20029;-77
2023/01/06 10:02:28;;;;;;;4.60;1.45;;;;;;;;;;5058548;28;20024;-77
2023/01/06 10:04:54;;;;;;;6.22;1.58;;;;;;;;;;5065117;28;20036;-77
2023/01/06 10:07:30;;;;;;;4.25;1.20;;;;;;;;;;5064786;28;20400;-77
2023/01/06 10:10:11;;;;;;;4.03;1.20;;;;;;;;;;5063784;28;20024;-77
2023/01/06 10:13:14;;;;;;;3.10;1.10;;;;;;;;;;5065458;28;20059;-77
2023/01/06 10:15:49;;;;;;;5.22;1.27;;;;;;;;;;5056604;28;20643;-77
2023/01/06 10:18:36;;;;;;;5.30;1.25;;;;;;;;;;5070177;28;20417;-77
2023/01/06 10:21:04;;;;;;;5.68;1.52;;;;;;;;;;5063824;28;20023;-77
2023/01/06 10:23:49;;;;;;;3.42;0.95;;;;;;;;;;5059650;28;20552;-77
2023/01/06 10:26:36;;;;;;;4.68;1.10;;;;;;;;;;5064632;28;20523;-77
2023/01/06 10:29:19;;;;;;;5.78;1.17;;;;;;;;;;5065356;28;20055;-77
2023/01/06 10:31:47;;;;;;;4.25;1.20;;;;;;;;;;5053170;28;20028;-77
2023/01/06 10:34:22;;;;;;;3.10;0.95;;;;;;;;;;5055331;28;20453;-77
2023/01/06 10:37:10;;;;;;;4.13;1.20;;;;;;;;;;5064971;28;20020;-77
2023/01/06 10:39:38;;;;;;;5.82;1.23;;;;;;;;;;5044879;28;22303;-77
2023/01/06 10:45:04;;;;;;;2.83;0.73;;;;;;;;;;5056828;28;20044;-77
2023/01/06 10:47:32;;;;;;;3.15;0.90;;;;;;;;;;5060744;28;20426;-77
2023/01/06 10:49:58;;;;;;;5.40;1.08;;;;;;;;;;5056144;28;20773;-76
2023/01/06 10:52:25;;;;;;;1.85;0.80;;;;;;;;;;5056194;28;20040;-77
2023/01/06 10:54:54;;;;;;;4.75;0.98;;;;;;;;;;5057925;28;20512;-77
2023/01/06 10:57:25;;;;;;;4.28;0.95;;;;;;;;;;5057281;28;20495;-77
2023/01/06 11:00:12;;;;;;;2.80;1.10;;;;;;;;;;5062336;28;20739;-76
2023/01/06 11:02:45;;;;;;;3.72;0.85;;;;;;;;;;5066205;28;20036;-76
2023/01/06 11:05:16;;;;;;;3.03;0.90;;;;;;;;;;5061732;28;20021;-77
2023/01/06 11:08:11;;;;;;;2.83;0.88;;;;;;;;;;5057861;28;20135;-77
2023/01/06 11:10:49;;;;;;;3.13;0.80;;;;;;;;;;5050923;28;20155;-77
2023/01/06 11:13:27;;;;;;;3.85;0.80;;;;;;;;;;5053309;28;20054;-77
2023/01/06 11:15:54;;;;;;;7.18;1.20;;;;;;;;;;5055548;28;20574;-77
2023/01/06 11:18:25;;;;;;;2.10;0.80;;;;;;;;;;5058042;28;20020;-76
2023/01/06 11:21:10;;;;;;;3.97;1.38;;;;;;;;;;5060601;28;20720;-76
2023/01/06 11:23:38;;;;;;;3.72;0.98;;;;;;;;;;5060286;28;20033;-77
2023/01/06 11:26:11;;;;;;;3.85;0.80;;;;;;;;;;5056898;28;20081;-76
2023/01/06 11:28:38;;;;;;;5.05;0.90;;;;;;;;;;5058590;28;20071;-77
2023/01/06 11:31:13;;;;;;;4.43;0.90;;;;;;;;;;5057297;28;20488;-77
2023/01/06 11:33:48;;;;;;;1.60;0.70;;;;;;;;;;5055900;28;20047;-77
2023/01/06 11:36:15;;;;;;;2.75;0.73;;;;;;;;;;5064024;28;20103;-77
2023/01/06 11:38:47;;;;;;;1.90;0.50;;;;;;;;;;5060275;28;20384;-77
2023/01/06 11:41:23;;;;;;;1.75;0.52;;;;;;;;;;5058089;28;20418;-77
2023/01/06 11:43:48;;;;;;;1.95;0.65;;;;;;;;;;5064098;28;20044;-77
2023/01/06 11:46:14;;;;;;;1.10;0.40;;;;;;;;;;5052573;28;20229;-77
2023/01/06 11:48:47;;;;;;;2.88;0.60;;;;;;;;;;5062131;28;20078;-78
2023/01/06 11:51:12;;;;;;;1.80;0.60;;;;;;;;;;5059434;28;20166;-77
2023/01/06 11:53:39;;;;;;;3.90;0.63;;;;;;;;;;5058803;28;20119;-77
2023/01/06 11:56:13;;;;;;;1.88;0.50;;;;;;;;;;5061773;28;20255;-77
2023/01/06 11:59:02;;;;;;;3.03;0.45;;;;;;;;;;5055990;28;20032;-77
2023/01/06 12:01:33;;;;;;;5.40;0.77;;;;;;;;;;5055100;28;20578;-77
2023/01/06 12:04:17;;;;;;;1.30;0.35;;;;;;;;;;5061708;28;20101;-77
2023/01/06 12:06:43;;;;;;;;;;;;;;;;;;5048940;28;20055;-77
2023/01/06 12:09:16;;;;;;;2.05;0.28;;;;;;;;;;5050705;28;19920;-77
2023/01/06 12:11:47;;;;;;;3.78;0.50;;;;;;;;;;5060828;28;20127;-77
2023/01/06 12:14:26;;;;;;;1.83;0.50;;;;;;;;;;5048123;28;20081;-77
2023/01/06 12:17:03;;;;;;;4.50;0.60;;;;;;;;;;5061358;28;20033;-77
2023/01/06 12:19:31;;;;;;;3.58;0.52;;;;;;;;;;5057866;28;20028;-78
2023/01/06 12:21:58;;;;;;;1.30;0.40;;;;;;;;;;5064024;28;20032;-77
2023/01/06 12:24:25;;;;;;;2.50;0.55;;;;;;;;;;5061910;28;20028;-77
2023/01/06 12:26:51;;;;;;;3.08;0.50;;;;;;;;;;5054916;28;20147;-77
2023/01/06 12:29:19;;;;;;;2.42;0.43;;;;;;;;;;5059196;28;20085;-77
2023/01/06 12:31:54;;;;;;;1.45;0.40;;;;;;;;;;5053983;28;20028;-77
2023/01/06 12:34:30;;;;;;;2.65;0.40;;;;;;;;;;5051684;28;20057;-77
2023/01/06 12:37:11;;;;;;;2.63;0.90;;;;;;;;;;5051415;28;20036;-77
2023/01/06 12:39:46;;;;;;;1.50;0.40;;;;;;;;;;5053888;28;20747;-77
2023/01/06 12:42:25;;;;;;;3.17;0.55;;;;;;;;;;5058931;28;20046;-77
2023/01/06 12:45:01;;;;;;;2.95;0.85;;;;;;;;;;5055328;28;20489;-77
2023/01/06 12:47:33;;;;;;;4.10;0.57;;;;;;;;;;5061379;28;20036;-77
2023/01/06 12:50:16;;;;;;;2.03;0.50;;;;;;;;;;5056506;28;20028;-77
2023/01/06 12:53:14;;;;;;;2.35;0.50;;;;;;;;;;5059625;28;20488;-77
2023/01/06 12:56:10;;;;;;;2.25;0.60;;;;;;;;;;5054828;28;20033;-77
2023/01/06 12:58:48;;;;;;;3.28;0.68;;;;;;;;;;5054322;28;20135;-77
2023/01/06 13:01:22;;;;;;;2.88;0.70;;;;;;;;;;5056425;28;20032;-77
2023/01/06 13:04:44;;;;;;;1.13;0.45;;;;;;;;;;5055361;28;20044;-77
2023/01/06 13:07:26;;;;;;;3.42;0.50;;;;;;;;;;5070433;28;20040;-77
2023/01/06 13:10:03;;;;;;;3.00;0.57;;;;;;;;;;5074238;28;20063;-77
2023/01/06 13:12:39;;;;;;;1.27;0.43;;;;;;;;;;5064807;28;20045;-77
2023/01/06 13:15:11;;;;;;;1.20;0.50;;;;;;;;;;5052345;28;20499;-77
2023/01/06 13:17:48;;;;;;;3.30;0.40;;;;;;;;;;5060617;28;20107;-77
2023/01/06 13:20:40;;;;;;;3.38;0.50;;;;;;;;;;5049866;28;20431;-77
2023/01/06 13:23:23;;;;;;;1.33;0.40;;;;;;;;;;5048516;28;20209;-77
2023/01/06 13:26:10;;;;;;;2.88;0.52;;;;;;;;;;5049706;28;20036;-77
2023/01/06 13:29:07;;;;;;;3.03;1.02;;;;;;;;;;5052208;28;20036;-77
2023/01/06 13:31:41;;;;;;;3.10;0.75;;;;;;;;;;5052091;28;20652;-77
2023/01/06 13:34:25;;;;;;;3.58;0.70;;;;;;;;;;5051770;28;20027;-77
2023/01/06 13:37:26;;;;;;;2.50;0.60;;;;;;;;;;5055852;28;20501;-77
2023/01/06 13:40:20;;;;;;;3.78;0.65;;;;;;;;;;5046374;28;20048;-77
2023/01/06 13:43:03;;;;;;;2.97;0.80;;;;;;;;;;5052794;28;20032;-77
2023/01/06 13:45:34;;;;;;;;;;;;;;;;;;5055275;28;20029;-77
2023/01/06 13:48:07;;;;;;;2.92;0.90;;;;;;;;;;5048276;28;19942;-77
2023/01/06 13:50:32;;;;;;;4.25;0.80;;;;;;;;;;5052728;28;20073;-77
2023/01/06 13:52:59;;;;;;;5.15;0.88;;;;;;;;;;5054758;28;20044;-77
2023/01/06 13:55:37;;;;;;;1.83;1.00;;;;;;;;;;5054926;28;20067;-77
2023/01/06 13:58:22;;;;;;;5.45;1.48;;;;;;;;;;5052386;28;20020;-77
2023/01/06 14:01:10;;;;;;;4.25;1.55;;;;;;;;;;5052704;28;20033;-77
2023/01/06 14:03:37;;;;;;;3.10;1.60;;;;;;;;;;5051960;28;20041;-77
2023/01/06 14:06:04;;;;;;;4.53;1.70;;;;;;;;;;5052220;28;20328;-77
2023/01/06 14:08:36;;;;;;;4.25;1.63;;;;;;;;;;5051073;28;20414;-77
2023/01/06 14:11:21;;;;;;;3.60;1.80;;;;;;;;;;5051077;28;20392;-77
2023/01/06 14:13:58;;;;;;;5.15;2.38;;;;;;;;;;5054395;28;20035;-77
2023/01/06 14:16:40;;;;;;;4.00;2.08;;;;;;;;;;5052116;28;20155;-77
2023/01/06 14:19:14;;;;;;;6.03;2.05;;;;;;;;;;5052025;28;20041;-77
2023/01/06 14:21:39;;;;;;;7.07;2.25;;;;;;;;;;5057314;28;20028;-77
2023/01/06 14:24:16;;;;;;;4.65;2.10;;;;;;;;;;5056337;28;20029;-77
2023/01/06 14:26:54;;;;;;;3.78;2.13;;;;;;;;;;5053572;28;20489;-77
2023/01/06 14:29:38;;;;;;;5.85;2.78;;;;;;;;;;5059016;28;20180;-77
2023/01/06 14:32:07;;;;;;;5.18;2.30;;;;;;;;;;5056604;28;20064;-77
2023/01/06 14:34:35;;;;;;;5.53;2.30;;;;;;;;;;5060346;28;20034;-77
2023/01/06 14:37:02;;;;;;;5.43;2.30;;;;;;;;;;5051962;28;20144;-77
2023/01/06 14:39:30;;;;;;;4.72;2.45;;;;;;;;;;5055964;28;20600;-77
2023/01/06 14:42:02;;;;;;;5.93;2.75;;;;;;;;;;5055066;28;20629;-77
2023/01/06 14:44:47;;;;;;;4.32;2.03;;;;;;;;;;5058231;28;20056;-77
2023/01/06 14:47:35;;;;;;;4.88;2.28;;;;;;;;;;5064032;28;20036;-77
2023/01/06 14:50:12;;;;;;;11.05;2.80;;;;;;;;;;5067314;28;20492;-77
2023/01/06 14:52:42;;;;;;;6.13;2.80;;;;;;;;;;5062058;28;20105;-77
2023/01/06 14:55:13;;;;;;;7.07;3.05;;;;;;;;;;5054942;28;20032;-77
2023/01/06 14:57:39;;;;;;;7.50;2.67;;;;;;;;;;5054306;28;20055;-77
2023/01/06 15:00:25;;;;;;;4.43;2.58;;;;;;;;;;5060235;28;20428;-77
2023/01/06 15:03:16;;;;;;;5.97;3.00;;;;;;;;;;5049181;28;20124;-77
2023/01/06 15:05:41;;;;;;;5.72;2.85;;;;;;;;;;5055934;28;20031;-77
2023/01/06 15:08:10;;;;;;;4.70;2.65;;;;;;;;;;5057812;28;20032;-77
2023/01/06 15:10:40;;;;;;;5.75;3.00;;;;;;;;;;5075374;28;20034;-77
2023/01/06 15:13:29;;;;;;;7.70;3.17;;;;;;;;;;5065272;28;20704;-77